createdAt,value
2018-12-04T00:01:36.346Z,10.30
2018-12-04T00:04:11.082Z,10.20
2018-12-04T00:06:45.985Z,10.20
2018-12-04T00:09:20.862Z,10.30
2018-12-04T00:11:55.580Z,10.30
2018-12-04T00:14:30.483Z,10.30
2018-12-04T00:17:05.366Z,10.40
2018-12-04T00:19:40.225Z,10.40
2018-12-04T00:22:15.188Z,10.40
2018-12-04T00:24:50.026Z,10.50
2018-12-04T00:27:24.957Z,10.40
2018-12-04T00:29:59.726Z,10.40
2018-12-04T00:32:34.594Z,10.40
2018-12-04T00:35:11.730Z,10.50
2018-12-04T00:37:46.468Z,10.50
2018-12-04T00:40:21.422Z,10.50
2018-12-04T00:48:21.291Z,10.30
2018-12-04T00:50:56.174Z,10.30
2018-12-04T00:53:31.186Z,10.20
2018-12-04T00:56:05.864Z,10.20
2018-12-04T00:58:40.746Z,10.20
2018-12-04T01:01:15.570Z,10.20
2018-12-04T01:03:50.505Z,10.20
2018-12-04T01:06:25.273Z,10.20
2018-12-04T01:08:59.892Z,10.20
2018-12-04T01:11:34.864Z,10.10
2018-12-04T01:14:09.977Z,10.10
2018-12-04T01:16:44.812Z,10.10
2018-12-04T01:19:19.887Z,10.10
2018-12-04T01:21:54.730Z,10.00
2018-12-04T01:24:29.615Z,10.00
2018-12-04T01:27:04.409Z,10.10
2018-12-04T01:29:39.042Z,10.00
2018-12-04T01:32:14.534Z,10.00
2018-12-04T01:34:49.393Z,9.90
2018-12-04T01:37:24.183Z,9.80
2018-12-04T01:39:59.093Z,9.80
2018-12-04T01:42:33.917Z,9.80
2018-12-04T01:45:08.914Z,9.80
2018-12-04T01:47:43.899Z,9.80
2018-12-04T01:50:18.691Z,9.80
2018-12-04T01:52:53.533Z,9.80
2018-12-04T01:55:28.245Z,9.80
2018-12-04T01:58:02.935Z,9.80
2018-12-04T02:00:37.956Z,9.80
2018-12-04T02:03:12.568Z,9.80
2018-12-04T02:05:47.420Z,9.80
2018-12-04T02:08:22.273Z,9.80
2018-12-04T02:10:57.217Z,9.70
2018-12-04T02:13:32.243Z,9.80
2018-12-04T02:16:06.935Z,9.80
